AVA9465 SKBG-SKBO
Flight info
| Callsign | AVA9465 |
|---|---|
| Flight time | 0h 31m |
| Altitude | 24000 |
| Route | UMKAG1A UMKAG Z010 AKSOK G431 ILSEV ILSEV5E |
| Aircraft | A320/M-SDE3FGHIRWY/LB1 |
Departure
| Time | 2026-05-04 15:19 |
|---|---|
| Airport | Palonegro Airport (SKBG) |
Arrival
| Time | 2026-05-04 15:51 |
|---|---|
| Airport | El Dorado International Airport (SKBO) |
| Time | Latitude | Longitude | Altitude | Speed | Heading |
|---|---|---|---|---|---|
| 2026-05-04 14:56 | 7.12741 | -73.18196 | 3905 ft | 0 kts | 10° |
| 2026-05-04 15:12 | 7.12720 | -73.18200 | 3905 ft | 3 kts | 7° |
| 2026-05-04 15:12 | 7.12699 | -73.18200 | 3904 ft | 3 kts | 338° |
| 2026-05-04 15:13 | 7.12688 | -73.18191 | 3905 ft | 2 kts | 281° |
| 2026-05-04 15:13 | 7.12686 | -73.18182 | 3905 ft | 0 kts | 281° |
| 2026-05-04 15:16 | 7.12694 | -73.18276 | 3900 ft | 14 kts | 262° |
| 2026-05-04 15:16 | 7.12689 | -73.18363 | 3902 ft | 8 kts | 246° |
| 2026-05-04 15:16 | 7.12555 | -73.18336 | 3897 ft | 16 kts | 160° |
| 2026-05-04 15:17 | 7.12434 | -73.18292 | 3892 ft | 21 kts | 160° |
| 2026-05-04 15:17 | 7.12093 | -73.18161 | 3878 ft | 31 kts | 159° |
| 2026-05-04 15:17 | 7.11933 | -73.18101 | 3870 ft | 15 kts | 161° |
| 2026-05-04 15:18 | 7.11817 | -73.18087 | 3865 ft | 19 kts | 178° |
| 2026-05-04 15:18 | 7.11725 | -73.18109 | 3863 ft | 10 kts | 242° |
| 2026-05-04 15:18 | 7.11772 | -73.18148 | 3864 ft | 18 kts | 341° |
| 2026-05-04 15:19 | 7.12962 | -73.18596 | 3916 ft | 157 kts | 339° |
| 2026-05-04 15:19 | 7.14025 | -73.19002 | 4504 ft | 167 kts | 339° |
| 2026-05-04 15:19 | 7.16213 | -73.19826 | 5931 ft | 166 kts | 340° |
| 2026-05-04 15:20 | 7.17285 | -73.20229 | 6567 ft | 164 kts | 341° |
| 2026-05-04 15:20 | 7.18349 | -73.20631 | 7131 ft | 164 kts | 341° |
| 2026-05-04 15:20 | 7.19490 | -73.21056 | 7387 ft | 186 kts | 340° |
| 2026-05-04 15:20 | 7.20779 | -73.21536 | 7624 ft | 209 kts | 340° |
| 2026-05-04 15:21 | 7.22223 | -73.22076 | 7853 ft | 234 kts | 341° |
| 2026-05-04 15:21 | 7.23721 | -73.22881 | 8171 ft | 258 kts | 316° |
| 2026-05-04 15:21 | 7.24486 | -73.26505 | 9033 ft | 297 kts | 248° |
| 2026-05-04 15:22 | 7.23289 | -73.28205 | 9744 ft | 303 kts | 222° |
| 2026-05-04 15:22 | 7.21638 | -73.29497 | 10562 ft | 306 kts | 213° |
| 2026-05-04 15:22 | 7.18120 | -73.31968 | 12223 ft | 311 kts | 213° |
| 2026-05-04 15:23 | 7.16349 | -73.33239 | 13020 ft | 315 kts | 217° |
| 2026-05-04 15:23 | 7.14683 | -73.34701 | 13779 ft | 321 kts | 222° |
| 2026-05-04 15:23 | 7.13063 | -73.36280 | 14401 ft | 331 kts | 221° |
| 2026-05-04 15:23 | 7.11274 | -73.37859 | 14564 ft | 354 kts | 218° |
| 2026-05-04 15:24 | 7.07161 | -73.41043 | 15133 ft | 386 kts | 214° |
| 2026-05-04 15:24 | 7.02747 | -73.44247 | 16317 ft | 396 kts | 213° |
| 2026-05-04 15:25 | 7.00505 | -73.45875 | 16913 ft | 399 kts | 214° |
| 2026-05-04 15:25 | 6.98248 | -73.47527 | 17477 ft | 403 kts | 214° |
| 2026-05-04 15:25 | 6.95976 | -73.49209 | 18051 ft | 407 kts | 215° |
| 2026-05-04 15:26 | 6.91526 | -73.52838 | 19182 ft | 416 kts | 218° |
| 2026-05-04 15:26 | 6.89322 | -73.54738 | 19741 ft | 419 kts | 219° |
| 2026-05-04 15:26 | 6.84867 | -73.58591 | 20824 ft | 426 kts | 219° |
| 2026-05-04 15:27 | 6.82598 | -73.60526 | 21346 ft | 429 kts | 218° |
| 2026-05-04 15:27 | 6.77989 | -73.64397 | 22296 ft | 434 kts | 218° |
| 2026-05-04 15:28 | 6.73313 | -73.68303 | 23169 ft | 440 kts | 219° |
| 2026-05-04 15:28 | 6.70956 | -73.70278 | 23582 ft | 442 kts | 219° |
| 2026-05-04 15:28 | 6.66238 | -73.74243 | 23984 ft | 450 kts | 219° |
| 2026-05-04 15:29 | 6.63817 | -73.76295 | 23990 ft | 458 kts | 219° |
| 2026-05-04 15:30 | 6.54016 | -73.84619 | 23980 ft | 462 kts | 219° |
| 2026-05-04 15:30 | 6.46329 | -73.90405 | 23996 ft | 460 kts | 205° |
| 2026-05-04 15:31 | 6.40251 | -73.92270 | 24000 ft | 457 kts | 189° |
| 2026-05-04 15:31 | 6.37127 | -73.92852 | 23999 ft | 457 kts | 189° |
| 2026-05-04 15:32 | 6.27752 | -73.94613 | 23969 ft | 457 kts | 189° |
| 2026-05-04 15:32 | 6.21498 | -73.95779 | 23952 ft | 457 kts | 189° |
| 2026-05-04 15:33 | 6.15244 | -73.96946 | 23984 ft | 457 kts | 189° |
| 2026-05-04 15:34 | 6.05856 | -73.98704 | 24033 ft | 458 kts | 189° |
| 2026-05-04 15:34 | 6.02723 | -73.99290 | 24040 ft | 458 kts | 189° |
| 2026-05-04 15:34 | 5.96458 | -74.00467 | 24050 ft | 458 kts | 189° |
| 2026-05-04 15:35 | 5.90204 | -74.01657 | 24053 ft | 457 kts | 189° |
| 2026-05-04 15:35 | 5.87081 | -74.02255 | 24053 ft | 457 kts | 189° |
| 2026-05-04 15:35 | 5.83958 | -74.02852 | 24127 ft | 457 kts | 189° |
| 2026-05-04 15:36 | 5.77710 | -74.04045 | 24218 ft | 457 kts | 189° |
| 2026-05-04 15:36 | 5.74581 | -74.04637 | 24234 ft | 457 kts | 189° |
| 2026-05-04 15:36 | 5.71455 | -74.05225 | 24245 ft | 458 kts | 189° |
| 2026-05-04 15:37 | 5.68326 | -74.05814 | 24250 ft | 457 kts | 189° |
| 2026-05-04 15:37 | 5.65201 | -74.06403 | 24254 ft | 457 kts | 189° |
| 2026-05-04 15:37 | 5.62078 | -74.06996 | 24258 ft | 457 kts | 189° |
| 2026-05-04 15:37 | 5.58960 | -74.07591 | 24250 ft | 456 kts | 189° |
| 2026-05-04 15:38 | 5.55896 | -74.08173 | 24220 ft | 449 kts | 189° |
| 2026-05-04 15:38 | 5.52854 | -74.08751 | 24234 ft | 443 kts | 189° |
| 2026-05-04 15:38 | 5.49795 | -74.09329 | 24273 ft | 441 kts | 189° |
| 2026-05-04 15:38 | 5.46787 | -74.09897 | 24352 ft | 440 kts | 189° |
| 2026-05-04 15:39 | 5.43830 | -74.10700 | 24382 ft | 442 kts | 201° |
| 2026-05-04 15:39 | 5.41125 | -74.12158 | 24385 ft | 443 kts | 214° |
| 2026-05-04 15:39 | 5.36797 | -74.16508 | 24299 ft | 445 kts | 228° |
| 2026-05-04 15:40 | 5.34734 | -74.18823 | 23253 ft | 449 kts | 224° |
| 2026-05-04 15:40 | 5.32304 | -74.20766 | 21951 ft | 444 kts | 209° |
| 2026-05-04 15:40 | 5.29593 | -74.22211 | 20525 ft | 440 kts | 205° |
| 2026-05-04 15:40 | 5.26887 | -74.23592 | 19215 ft | 432 kts | 205° |
| 2026-05-04 15:41 | 5.24234 | -74.24926 | 18435 ft | 415 kts | 204° |
| 2026-05-04 15:41 | 5.21742 | -74.26179 | 18257 ft | 390 kts | 204° |
| 2026-05-04 15:41 | 5.19361 | -74.27376 | 18126 ft | 376 kts | 204° |
| 2026-05-04 15:41 | 5.17060 | -74.28534 | 17961 ft | 364 kts | 204° |
| 2026-05-04 15:42 | 5.14842 | -74.29652 | 17820 ft | 349 kts | 204° |
| 2026-05-04 15:42 | 5.12718 | -74.30726 | 17403 ft | 339 kts | 204° |
| 2026-05-04 15:42 | 5.10610 | -74.31792 | 16961 ft | 340 kts | 204° |
| 2026-05-04 15:42 | 5.08499 | -74.32858 | 16594 ft | 337 kts | 204° |
| 2026-05-04 15:43 | 5.06396 | -74.33920 | 16122 ft | 338 kts | 204° |
| 2026-05-04 15:43 | 5.04309 | -74.34975 | 15792 ft | 334 kts | 204° |
| 2026-05-04 15:43 | 5.02237 | -74.36024 | 15429 ft | 332 kts | 205° |
| 2026-05-04 15:43 | 5.00147 | -74.37082 | 14616 ft | 343 kts | 205° |
| 2026-05-04 15:44 | 4.97973 | -74.38178 | 13688 ft | 356 kts | 205° |
| 2026-05-04 15:44 | 4.95746 | -74.39303 | 13095 ft | 357 kts | 205° |
| 2026-05-04 15:44 | 4.93534 | -74.40269 | 12904 ft | 333 kts | 193° |
| 2026-05-04 15:44 | 4.91344 | -74.40428 | 12855 ft | 302 kts | 171° |
| 2026-05-04 15:45 | 4.89399 | -74.39861 | 12476 ft | 287 kts | 150° |
| 2026-05-04 15:45 | 4.87826 | -74.38704 | 12063 ft | 276 kts | 137° |
| 2026-05-04 15:45 | 4.86511 | -74.37355 | 11860 ft | 266 kts | 128° |
| 2026-05-04 15:45 | 4.85415 | -74.35930 | 11868 ft | 251 kts | 126° |
| 2026-05-04 15:46 | 4.84403 | -74.34566 | 11883 ft | 238 kts | 126° |
| 2026-05-04 15:46 | 4.83422 | -74.33263 | 11897 ft | 230 kts | 126° |
| 2026-05-04 15:46 | 4.82470 | -74.32005 | 11908 ft | 222 kts | 126° |
| 2026-05-04 15:46 | 4.81560 | -74.30803 | 11715 ft | 212 kts | 126° |
| 2026-05-04 15:47 | 4.80677 | -74.29637 | 11440 ft | 208 kts | 126° |
| 2026-05-04 15:47 | 4.79811 | -74.28492 | 11171 ft | 204 kts | 126° |
| 2026-05-04 15:47 | 4.78965 | -74.27375 | 10906 ft | 199 kts | 126° |
| 2026-05-04 15:47 | 4.78150 | -74.26297 | 10639 ft | 187 kts | 126° |
| 2026-05-04 15:48 | 4.77392 | -74.25297 | 10415 ft | 175 kts | 126° |
| 2026-05-04 15:48 | 4.76672 | -74.24346 | 10207 ft | 165 kts | 126° |
| 2026-05-04 15:48 | 4.75311 | -74.22547 | 9756 ft | 159 kts | 126° |
| 2026-05-04 15:49 | 4.74646 | -74.21668 | 9549 ft | 159 kts | 126° |
| 2026-05-04 15:49 | 4.73982 | -74.20792 | 9332 ft | 157 kts | 126° |
| 2026-05-04 15:49 | 4.73318 | -74.19915 | 9123 ft | 158 kts | 126° |
| 2026-05-04 15:49 | 4.72657 | -74.19041 | 8917 ft | 157 kts | 126° |
| 2026-05-04 15:50 | 4.71995 | -74.18169 | 8717 ft | 157 kts | 126° |
| 2026-05-04 15:50 | 4.71339 | -74.17296 | 8510 ft | 156 kts | 127° |
| 2026-05-04 15:50 | 4.70696 | -74.16442 | 8377 ft | 144 kts | 127° |
| 2026-05-04 15:50 | 4.70193 | -74.15776 | 8372 ft | 97 kts | 127° |
| 2026-05-04 15:51 | 4.69889 | -74.15376 | 8375 ft | 47 kts | 127° |
| 2026-05-04 15:51 | 4.69744 | -74.15149 | 8374 ft | 35 kts | 110° |
| 2026-05-04 15:51 | 4.69714 | -74.14984 | 8373 ft | 15 kts | 96° |
| 2026-05-04 15:51 | 4.69707 | -74.14878 | 8373 ft | 16 kts | 76° |
| 2026-05-04 15:52 | 4.69782 | -74.14797 | 8373 ft | 17 kts | 36° |
| 2026-05-04 15:52 | 4.69853 | -74.14733 | 8373 ft | 8 kts | 82° |
| 2026-05-04 15:52 | 4.69828 | -74.14683 | 8373 ft | 8 kts | 125° |
| 2026-05-04 15:52 | 4.69800 | -74.14659 | 8371 ft | 4 kts | 193° |
| 2026-05-04 15:53 | 4.69775 | -74.14678 | 8373 ft | 4 kts | 218° |
| 2026-05-04 15:53 | 4.69765 | -74.14686 | 8373 ft | 0 kts | 218° |